Time,TemperatureF,DewpointF,PressureIn,WindDirection,WindDirectionDegrees,WindSpeedMPH,WindSpeedGustMPH,Humidity,HourlyPrecipIn,Conditions,Clouds,dailyrainin,SoftwareType,DateUTC
2013-02-18 00:01:00,39.7,33.0,29.89,SSE,167,8.0,13.0,77,0.00,,,0.00,weatherlink.com 1.10,2013-02-18 06:01:00,
2013-02-18 00:16:00,39.6,33.0,29.88,SSE,152,7.0,11.0,77,0.00,,,0.00,weatherlink.com 1.10,2013-02-18 06:16:00,
2013-02-18 00:31:00,39.6,33.0,29.88,SSE,149,7.0,11.0,77,0.00,,,0.00,weatherlink.com 1.10,2013-02-18 06:31:00,
2013-02-18 00:46:00,39.5,33.0,29.88,SE,141,4.0,12.0,77,0.00,,,0.00,weatherlink.com 1.10,2013-02-18 06:46:00,
2013-02-18 01:01:00,39.4,33.0,29.87,SE,138,9.0,10.0,77,0.00,,,0.00,weatherlink.com 1.10,2013-02-18 07:01:00,
2013-02-18 01:16:00,39.5,33.0,29.86,SSE,149,5.0,11.0,77,0.00,,,0.00,weatherlink.com 1.10,2013-02-18 07:16:00,
2013-02-18 01:31:00,39.3,33.0,29.86,South,169,6.0,12.0,78,0.00,,,0.00,weatherlink.com 1.10,2013-02-18 07:31:00,
2013-02-18 01:46:00,39.3,33.0,29.86,SSE,153,6.0,11.0,78,0.00,,,0.00,weatherlink.com 1.10,2013-02-18 07:46:00,
2013-02-18 02:01:00,39.2,33.0,29.85,SSE,164,5.0,13.0,78,0.00,,,0.00,weatherlink.com 1.10,2013-02-18 08:01:00,
2013-02-18 02:16:00,38.7,33.0,29.85,SSE,152,3.0,6.0,79,0.00,,,0.00,weatherlink.com 1.10,2013-02-18 08:16:00,
2013-02-18 02:31:00,38.7,33.0,29.84,SSE,154,2.0,7.0,79,0.00,,,0.00,weatherlink.com 1.10,2013-02-18 08:31:00,
2013-02-18 02:46:00,38.6,33.0,29.83,South,174,3.0,6.0,79,0.00,,,0.00,weatherlink.com 1.10,2013-02-18 08:46:00,
2013-02-18 03:01:00,38.6,33.0,29.82,SE,130,4.0,6.0,79,0.00,,,0.00,weatherlink.com 1.10,2013-02-18 09:01:00,
2013-02-18 03:16:00,38.2,33.0,29.82,SSE,150,3.0,5.0,80,0.00,,,0.00,weatherlink.com 1.10,2013-02-18 09:16:00,
2013-02-18 03:31:00,38.0,33.0,29.81,SSE,166,3.0,5.0,81,0.00,,,0.00,weatherlink.com 1.10,2013-02-18 09:31:00,
2013-02-18 03:49:00,38.1,33.0,29.80,South,173,4.0,7.0,82,0.00,,,0.00,weatherlink.com 1.10,2013-02-18 09:49:00,
2013-02-18 04:01:00,38.5,33.0,29.80,SSW,198,2.0,5.0,81,0.00,,,0.00,weatherlink.com 1.10,2013-02-18 10:01:00,
2013-02-18 04:16:00,38.3,33.0,29.80,South,191,2.0,7.0,82,0.00,,,0.00,weatherlink.com 1.10,2013-02-18 10:16:00,
2013-02-18 04:31:00,38.5,33.0,29.80,SSW,193,3.0,6.0,82,0.00,,,0.00,weatherlink.com 1.10,2013-02-18 10:31:00,
2013-02-18 04:47:00,39.1,34.0,29.79,South,181,2.0,6.0,82,0.00,,,0.00,weatherlink.com 1.10,2013-02-18 10:47:00,
2013-02-18 05:01:00,39.2,34.0,29.79,ESE,121,5.0,8.0,81,0.00,,,0.00,weatherlink.com 1.10,2013-02-18 11:01:00,
2013-02-18 05:17:00,38.8,34.0,29.79,SSE,148,2.0,5.0,82,0.00,,,0.00,weatherlink.com 1.10,2013-02-18 11:17:00,
2013-02-18 05:31:00,38.9,34.0,29.78,SE,135,3.0,5.0,83,0.00,,,0.00,weatherlink.com 1.10,2013-02-18 11:31:00,
2013-02-18 05:46:00,39.1,34.0,29.78,SSE,167,2.0,4.0,83,0.00,,,0.00,weatherlink.com 1.10,2013-02-18 11:46:00,
2013-02-18 06:02:00,39.6,35.0,29.77,SSW,200,4.0,6.0,84,0.00,,,0.00,weatherlink.com 1.10,2013-02-18 12:02:00,
2013-02-18 06:17:00,40.3,36.0,29.77,South,179,2.0,10.0,84,0.00,,,0.00,weatherlink.com 1.10,2013-02-18 12:17:00,
2013-02-18 06:32:00,40.3,36.0,29.77,SSE,149,3.0,6.0,84,0.00,,,0.00,weatherlink.com 1.10,2013-02-18 12:32:00,
2013-02-18 06:47:00,41.0,37.0,29.77,SSE,155,1.0,7.0,84,0.00,,,0.00,weatherlink.com 1.10,2013-02-18 12:47:00,
2013-02-18 07:02:00,41.3,37.0,29.77,SSW,194,1.0,8.0,83,0.00,,,0.00,weatherlink.com 1.10,2013-02-18 13:02:00,
2013-02-18 07:17:00,42.0,37.0,29.76,SE,143,2.0,7.0,83,0.00,,,0.00,weatherlink.com 1.10,2013-02-18 13:17:00,
2013-02-18 07:32:00,42.9,38.0,29.76,SSW,198,3.0,8.0,82,0.00,,,0.00,weatherlink.com 1.10,2013-02-18 13:32:00,
2013-02-18 07:47:00,43.7,39.0,29.76,South,177,1.0,8.0,82,0.00,,,0.00,weatherlink.com 1.10,2013-02-18 13:47:00,
2013-02-18 08:02:00,44.9,39.0,29.75,SSW,201,1.0,9.0,80,0.00,,,0.00,weatherlink.com 1.10,2013-02-18 14:02:00,
2013-02-18 08:17:00,45.9,40.0,29.75,South,173,2.0,7.0,80,0.00,,,0.00,weatherlink.com 1.10,2013-02-18 14:17:00,
2013-02-18 08:32:00,47.2,41.0,29.75,SSW,198,2.0,7.0,78,0.00,,,0.00,weatherlink.com 1.10,2013-02-18 14:32:00,
2013-02-18 08:47:00,49.6,42.0,29.75,SSE,164,3.0,7.0,75,0.00,,,0.00,weatherlink.com 1.10,2013-02-18 14:47:00,
2013-02-18 09:02:00,50.7,42.0,29.74,SSW,207,1.0,10.0,73,0.00,,,0.00,weatherlink.com 1.10,2013-02-18 15:02:00,
2013-02-18 09:17:00,51.9,43.0,29.73,South,191,4.0,8.0,71,0.00,,,0.00,weatherlink.com 1.10,2013-02-18 15:17:00,
2013-02-18 09:47:00,54.0,44.0,29.74,SW,219,4.0,10.0,69,0.00,,,0.00,weatherlink.com 1.10,2013-02-18 15:47:00,
2013-02-18 10:03:00,54.8,44.0,29.73,SW,222,1.0,23.0,68,0.00,,,0.00,weatherlink.com 1.10,2013-02-18 16:03:00,
2013-02-18 10:18:00,55.3,45.0,29.72,ESE,109,6.0,11.0,68,0.00,,,0.00,weatherlink.com 1.10,2013-02-18 16:18:00,
2013-02-18 10:32:00,55.7,45.0,29.72,SSW,210,3.0,10.0,68,0.00,,,0.00,weatherlink.com 1.10,2013-02-18 16:32:00,
2013-02-18 10:47:00,55.4,45.0,29.72,West,259,10.0,15.0,69,0.00,,,0.00,weatherlink.com 1.10,2013-02-18 16:47:00,
2013-02-18 11:03:00,55.5,46.0,29.71,ENE,74,2.0,13.0,70,0.00,,,0.00,weatherlink.com 1.10,2013-02-18 17:03:00,
2013-02-18 11:17:00,56.3,46.0,29.71,SSW,193,3.0,9.0,69,0.00,,,0.00,weatherlink.com 1.10,2013-02-18 17:17:00,
2013-02-18 11:33:00,56.5,46.0,29.70,SSE,155,4.0,11.0,69,0.00,,,0.00,weatherlink.com 1.10,2013-02-18 17:33:00,
2013-02-18 11:48:00,56.6,46.0,29.69,WSW,242,13.0,14.0,69,0.00,,,0.00,weatherlink.com 1.10,2013-02-18 17:48:00,
2013-02-18 12:03:00,56.5,47.0,29.69,WSW,257,2.0,11.0,70,0.00,,,0.00,weatherlink.com 1.10,2013-02-18 18:03:00,
2013-02-18 12:18:00,56.2,47.0,29.68,SSW,207,4.0,14.0,71,0.00,,,0.00,weatherlink.com 1.10,2013-02-18 18:18:00,
2013-02-18 12:33:00,55.8,47.0,29.66,SE,132,3.0,14.0,72,0.00,,,0.00,weatherlink.com 1.10,2013-02-18 18:33:00,
2013-02-18 12:48:00,55.3,47.0,29.66,South,186,1.0,17.0,74,0.00,,,0.00,weatherlink.com 1.10,2013-02-18 18:48:00,
2013-02-18 13:03:00,54.7,47.0,29.65,SSE,155,8.0,14.0,75,0.00,,,0.00,weatherlink.com 1.10,2013-02-18 19:03:00,
2013-02-18 13:33:00,54.2,47.0,29.63,West,263,5.0,13.0,77,0.00,,,0.00,weatherlink.com 1.10,2013-02-18 19:33:00,
2013-02-18 13:48:00,53.9,47.0,29.62,SSE,158,5.0,12.0,78,0.00,,,0.00,weatherlink.com 1.10,2013-02-18 19:48:00,
2013-02-18 14:03:00,53.8,47.0,29.61,SSE,158,3.0,15.0,78,0.00,,,0.00,weatherlink.com 1.10,2013-02-18 20:03:00,
2013-02-18 14:18:00,53.8,47.0,29.60,SSE,150,4.0,13.0,78,0.00,,,0.00,weatherlink.com 1.10,2013-02-18 20:18:00,
2013-02-18 14:33:00,53.7,47.0,29.59,SSE,165,4.0,14.0,78,0.00,,,0.00,weatherlink.com 1.10,2013-02-18 20:33:00,
2013-02-18 14:48:00,53.8,47.0,29.58,WSW,257,3.0,14.0,78,0.00,,,0.00,weatherlink.com 1.10,2013-02-18 20:48:00,
2013-02-18 15:03:00,53.8,47.0,29.57,SW,219,3.0,13.0,79,0.00,,,0.00,weatherlink.com 1.10,2013-02-18 21:03:00,
2013-02-18 15:18:00,53.9,48.0,29.55,SE,138,4.0,16.0,79,0.00,,,0.00,weatherlink.com 1.10,2013-02-18 21:18:00,
2013-02-18 15:33:00,53.9,48.0,29.54,SSW,200,9.0,9.0,79,0.00,,,0.00,weatherlink.com 1.10,2013-02-18 21:33:00,
2013-02-18 15:48:00,53.6,47.0,29.53,SSW,211,3.0,18.0,79,0.00,,,0.00,weatherlink.com 1.10,2013-02-18 21:48:00,
2013-02-18 16:04:00,53.3,47.0,29.53,SE,145,14.0,14.0,80,0.00,,,0.00,weatherlink.com 1.10,2013-02-18 22:04:00,
2013-02-18 16:18:00,52.9,48.0,29.53,WSW,240,7.0,17.0,83,0.00,,,0.00,weatherlink.com 1.10,2013-02-18 22:18:00,
2013-02-18 16:33:00,52.0,48.0,29.52,SSW,197,3.0,14.0,87,0.00,,,0.00,weatherlink.com 1.10,2013-02-18 22:33:00,
2013-02-18 16:48:00,50.9,48.0,29.52,SW,218,7.0,9.0,90,0.01,,,0.01,weatherlink.com 1.10,2013-02-18 22:48:00,
2013-02-18 17:04:00,50.6,48.0,29.53,SW,219,8.0,11.0,91,0.01,,,0.01,weatherlink.com 1.10,2013-02-18 23:04:00,
2013-02-18 17:19:00,50.4,48.0,29.53,SSE,156,2.0,10.0,92,0.07,,,0.07,weatherlink.com 1.10,2013-02-18 23:19:00,
2013-02-18 17:34:00,50.0,48.0,29.54,SSW,207,2.0,6.0,94,0.20,,,0.20,weatherlink.com 1.10,2013-02-18 23:34:00,
2013-02-18 17:48:00,49.0,47.0,29.57,West,281,3.0,14.0,92,0.29,,,0.30,weatherlink.com 1.10,2013-02-18 23:48:00,
2013-02-18 18:04:00,46.6,44.0,29.60,WNW,301,2.0,16.0,92,0.33,,,0.34,weatherlink.com 1.10,2013-02-19 00:04:00,
2013-02-18 18:18:00,44.8,42.0,29.61,NW,311,14.0,26.0,89,0.26,,,0.34,weatherlink.com 1.10,2013-02-19 00:18:00,
2013-02-18 18:33:00,42.3,40.0,29.63,NW,326,10.0,20.0,91,0.14,,,0.34,weatherlink.com 1.10,2013-02-19 00:33:00,
2013-02-18 18:48:00,41.3,39.0,29.66,North,6,15.0,20.0,91,0.03,,,0.34,weatherlink.com 1.10,2013-02-19 00:48:00,
2013-02-18 19:03:00,39.7,36.0,29.66,North,350,15.0,37.0,86,0.00,,,0.34,weatherlink.com 1.10,2013-02-19 01:03:00,
2013-02-18 19:18:00,39.1,36.0,29.70,NW,309,19.0,26.0,88,0.00,,,0.34,weatherlink.com 1.10,2013-02-19 01:18:00,
2013-02-18 19:34:00,38.7,36.0,29.71,NNW,336,9.0,25.0,88,0.00,,,0.34,weatherlink.com 1.10,2013-02-19 01:34:00,
2013-02-18 19:48:00,38.6,35.0,29.72,NW,321,7.0,18.0,88,0.00,,,0.34,weatherlink.com 1.10,2013-02-19 01:48:00,
2013-02-18 20:19:00,38.5,35.0,29.75,NNW,337,12.0,17.0,88,0.00,,,0.34,weatherlink.com 1.10,2013-02-19 02:19:00,
2013-02-18 20:33:00,37.9,34.0,29.76,NNW,330,6.0,21.0,86,0.00,,,0.34,weatherlink.com 1.10,2013-02-19 02:33:00,
2013-02-18 20:49:00,37.2,33.0,29.78,West,260,5.0,28.0,85,0.00,,,0.34,weatherlink.com 1.10,2013-02-19 02:49:00,
2013-02-18 21:04:00,36.4,32.0,29.79,WNW,300,6.0,27.0,84,0.00,,,0.34,weatherlink.com 1.10,2013-02-19 03:04:00,
2013-02-18 21:19:00,35.7,31.0,29.81,NW,321,8.0,22.0,82,0.00,,,0.34,weatherlink.com 1.10,2013-02-19 03:19:00,
2013-02-18 21:34:00,34.9,29.0,29.81,NW,308,7.0,24.0,79,0.00,,,0.34,weatherlink.com 1.10,2013-02-19 03:34:00,
2013-02-18 21:49:00,34.5,29.0,29.83,NNW,333,13.0,22.0,79,0.00,,,0.34,weatherlink.com 1.10,2013-02-19 03:49:00,
2013-02-18 22:04:00,33.8,26.0,29.84,NW,317,11.0,27.0,74,0.00,,,0.34,weatherlink.com 1.10,2013-02-19 04:04:00,
2013-02-18 22:19:00,33.5,27.0,29.85,NW,307,12.0,21.0,76,0.00,,,0.34,weatherlink.com 1.10,2013-02-19 04:19:00,
2013-02-18 22:49:00,33.2,26.0,29.87,NNW,339,8.0,20.0,75,0.00,,,0.34,weatherlink.com 1.10,2013-02-19 04:49:00,
2013-02-18 23:04:00,33.1,26.0,29.87,NNW,336,8.0,15.0,75,0.00,,,0.34,weatherlink.com 1.10,2013-02-19 05:04:00,
2013-02-18 23:19:00,32.9,26.0,29.88,WNW,294,1.0,15.0,75,0.00,,,0.34,weatherlink.com 1.10,2013-02-19 05:19:00,
2013-02-18 23:34:00,32.9,26.0,29.89,NW,318,10.0,19.0,77,0.00,,,0.00,weatherlink.com 1.10,2013-02-19 05:34:00,
2013-02-18 23:49:00,32.3,24.0,29.89,WNW,293,10.0,24.0,71,0.00,,,0.00,weatherlink.com 1.10,2013-02-19 05:49:00,